sensor_id;sensor_type;location;lat;lon;timestamp;pressure;altitude;pressure_sealevel;temperature
40199;BMP280;25906;43.536;26.068;2023-03-13T00:00:20;99250.69;;;3.53
40199;BMP280;25906;43.536;26.068;2023-03-13T00:03:06;99245.03;;;3.51
40199;BMP280;25906;43.536;26.068;2023-03-13T00:05:56;99243.28;;;3.59
40199;BMP280;25906;43.536;26.068;2023-03-13T00:08:42;99248.16;;;3.61
40199;BMP280;25906;43.536;26.068;2023-03-13T00:11:28;99242.34;;;3.44
40199;BMP280;25906;43.536;26.068;2023-03-13T00:14:14;99245.84;;;3.55
40199;BMP280;25906;43.536;26.068;2023-03-13T00:16:59;99245.16;;;3.58
40199;BMP280;25906;43.536;26.068;2023-03-13T00:19:47;99244.53;;;3.69
40199;BMP280;25906;43.536;26.068;2023-03-13T00:22:32;99250.16;;;3.71
40199;BMP280;25906;43.536;26.068;2023-03-13T00:25:17;99252.22;;;3.88
40199;BMP280;25906;43.536;26.068;2023-03-13T00:28:03;99250.94;;;3.75
40199;BMP280;25906;43.536;26.068;2023-03-13T00:30:48;99251.28;;;3.70
40199;BMP280;25906;43.536;26.068;2023-03-13T00:33:35;99253.34;;;3.57
40199;BMP280;25906;43.536;26.068;2023-03-13T00:36:26;99246.19;;;3.54
40199;BMP280;25906;43.536;26.068;2023-03-13T00:39:12;99240.28;;;3.57
40199;BMP280;25906;43.536;26.068;2023-03-13T00:41:58;99258.69;;;3.34
40199;BMP280;25906;43.536;26.068;2023-03-13T00:44:47;99247.50;;;3.37
40199;BMP280;25906;43.536;26.068;2023-03-13T00:47:33;99254.31;;;3.42
40199;BMP280;25906;43.536;26.068;2023-03-13T00:50:18;99253.38;;;3.31
40199;BMP280;25906;43.536;26.068;2023-03-13T00:53:04;99258.28;;;3.32
40199;BMP280;25906;43.536;26.068;2023-03-13T00:55:54;99255.94;;;3.27
40199;BMP280;25906;43.536;26.068;2023-03-13T00:58:41;99257.72;;;3.20
40199;BMP280;25906;43.536;26.068;2023-03-13T01:01:33;99256.28;;;3.22
40199;BMP280;25906;43.536;26.068;2023-03-13T01:04:18;99261.09;;;3.20
40199;BMP280;25906;43.536;26.068;2023-03-13T01:07:04;99257.56;;;3.09
40199;BMP280;25906;43.536;26.068;2023-03-13T01:09:49;99259.72;;;3.03
40199;BMP280;25906;43.536;26.068;2023-03-13T01:12:36;99263.50;;;3.06
40199;BMP280;25906;43.536;26.068;2023-03-13T01:15:21;99252.59;;;3.00
40199;BMP280;25906;43.536;26.068;2023-03-13T01:18:08;99252.94;;;2.99
40199;BMP280;25906;43.536;26.068;2023-03-13T01:20:53;99251.06;;;2.99
40199;BMP280;25906;43.536;26.068;2023-03-13T01:23:39;99251.00;;;2.92
40199;BMP280;25906;43.536;26.068;2023-03-13T01:26:25;99256.59;;;2.94
40199;BMP280;25906;43.536;26.068;2023-03-13T01:29:10;99261.00;;;2.87
40199;BMP280;25906;43.536;26.068;2023-03-13T01:31:56;99265.81;;;2.85
40199;BMP280;25906;43.536;26.068;2023-03-13T01:34:41;99266.22;;;2.87
40199;BMP280;25906;43.536;26.068;2023-03-13T01:37:27;99268.44;;;2.62
40199;BMP280;25906;43.536;26.068;2023-03-13T01:40:12;99276.84;;;2.52
40199;BMP280;25906;43.536;26.068;2023-03-13T01:42:59;99278.63;;;2.48
40199;BMP280;25906;43.536;26.068;2023-03-13T01:46:14;99285.72;;;2.47
40199;BMP280;25906;43.536;26.068;2023-03-13T01:49:15;99283.84;;;2.48
40199;BMP280;25906;43.536;26.068;2023-03-13T01:52:08;99281.06;;;2.37
40199;BMP280;25906;43.536;26.068;2023-03-13T01:55:00;99290.19;;;2.08
40199;BMP280;25906;43.536;26.068;2023-03-13T01:57:49;99298.59;;;2.17
40199;BMP280;25906;43.536;26.068;2023-03-13T02:00:36;99300.59;;;2.24
40199;BMP280;25906;43.536;26.068;2023-03-13T02:03:23;99290.28;;;2.31
40199;BMP280;25906;43.536;26.068;2023-03-13T02:06:09;99300.16;;;2.03
40199;BMP280;25906;43.536;26.068;2023-03-13T02:09:06;99297.56;;;2.03
40199;BMP280;25906;43.536;26.068;2023-03-13T02:12:09;99300.50;;;2.01
40199;BMP280;25906;43.536;26.068;2023-03-13T02:14:57;99299.34;;;1.79
40199;BMP280;25906;43.536;26.068;2023-03-13T02:17:44;99302.22;;;1.93
40199;BMP280;25906;43.536;26.068;2023-03-13T02:20:30;99307.09;;;1.95
40199;BMP280;25906;43.536;26.068;2023-03-13T02:23:25;99310.56;;;1.99
40199;BMP280;25906;43.536;26.068;2023-03-13T02:26:12;99312.66;;;1.93
40199;BMP280;25906;43.536;26.068;2023-03-13T02:28:57;99321.00;;;1.99
40199;BMP280;25906;43.536;26.068;2023-03-13T02:31:45;99322.84;;;1.99
40199;BMP280;25906;43.536;26.068;2023-03-13T02:34:33;99327.22;;;1.75
40199;BMP280;25906;43.536;26.068;2023-03-13T02:37:20;99331.00;;;1.78
40199;BMP280;25906;43.536;26.068;2023-03-13T02:40:08;99332.84;;;1.77
40199;BMP280;25906;43.536;26.068;2023-03-13T02:42:58;99343.63;;;1.60
40199;BMP280;25906;43.536;26.068;2023-03-13T02:48:54;99332.81;;;1.58
40199;BMP280;25906;43.536;26.068;2023-03-13T02:51:43;99345.31;;;1.52
40199;BMP280;25906;43.536;26.068;2023-03-13T02:54:33;99346.94;;;1.57
40199;BMP280;25906;43.536;26.068;2023-03-13T02:57:19;99347.84;;;1.65
40199;BMP280;25906;43.536;26.068;2023-03-13T03:00:06;99355.53;;;1.42
40199;BMP280;25906;43.536;26.068;2023-03-13T03:02:56;99353.50;;;1.51
40199;BMP280;25906;43.536;26.068;2023-03-13T03:05:42;99351.22;;;1.49
40199;BMP280;25906;43.536;26.068;2023-03-13T03:08:27;99360.94;;;1.17
40199;BMP280;25906;43.536;26.068;2023-03-13T03:11:13;99374.97;;;1.29
40199;BMP280;25906;43.536;26.068;2023-03-13T03:13:58;99378.44;;;1.33
40199;BMP280;25906;43.536;26.068;2023-03-13T03:16:44;99377.72;;;1.20
40199;BMP280;25906;43.536;26.068;2023-03-13T03:19:29;99379.59;;;1.20
40199;BMP280;25906;43.536;26.068;2023-03-13T03:22:15;99383.63;;;1.33
40199;BMP280;25906;43.536;26.068;2023-03-13T03:25:00;99389.84;;;1.28
40199;BMP280;25906;43.536;26.068;2023-03-13T03:27:46;99390.94;;;1.43
40199;BMP280;25906;43.536;26.068;2023-03-13T03:30:31;99388.56;;;1.38
40199;BMP280;25906;43.536;26.068;2023-03-13T03:33:16;99393.78;;;1.38
40199;BMP280;25906;43.536;26.068;2023-03-13T03:36:04;99411.28;;;1.37
40199;BMP280;25906;43.536;26.068;2023-03-13T03:38:50;99413.56;;;1.39
40199;BMP280;25906;43.536;26.068;2023-03-13T03:41:36;99414.41;;;1.43
40199;BMP280;25906;43.536;26.068;2023-03-13T03:44:21;99421.97;;;1.48
40199;BMP280;25906;43.536;26.068;2023-03-13T03:47:07;99426.09;;;1.49
40199;BMP280;25906;43.536;26.068;2023-03-13T03:49:52;99426.69;;;1.58
40199;BMP280;25906;43.536;26.068;2023-03-13T03:52:37;99435.78;;;1.64
40199;BMP280;25906;43.536;26.068;2023-03-13T03:55:23;99449.41;;;1.58
40199;BMP280;25906;43.536;26.068;2023-03-13T03:58:08;99448.06;;;1.48
40199;BMP280;25906;43.536;26.068;2023-03-13T04:00:56;99445.72;;;1.43
40199;BMP280;25906;43.536;26.068;2023-03-13T04:03:41;99450.06;;;1.54
40199;BMP280;25906;43.536;26.068;2023-03-13T04:06:27;99453.53;;;1.43
40199;BMP280;25906;43.536;26.068;2023-03-13T04:09:12;99464.63;;;1.40
40199;BMP280;25906;43.536;26.068;2023-03-13T04:11:58;99463.59;;;1.44
40199;BMP280;25906;43.536;26.068;2023-03-13T04:14:43;99467.31;;;1.43
40199;BMP280;25906;43.536;26.068;2023-03-13T04:17:29;99469.94;;;1.43
40199;BMP280;25906;43.536;26.068;2023-03-13T04:20:15;99468.88;;;1.16
40199;BMP280;25906;43.536;26.068;2023-03-13T04:23:01;99475.81;;;1.25
40199;BMP280;25906;43.536;26.068;2023-03-13T04:25:46;99461.31;;;1.11
40199;BMP280;25906;43.536;26.068;2023-03-13T04:28:32;99473.81;;;1.06
40199;BMP280;25906;43.536;26.068;2023-03-13T04:31:17;99480.91;;;0.93
40199;BMP280;25906;43.536;26.068;2023-03-13T04:34:03;99476.34;;;0.90
40199;BMP280;25906;43.536;26.068;2023-03-13T04:36:48;99486.22;;;0.97
40199;BMP280;25906;43.536;26.068;2023-03-13T04:39:33;99491.28;;;1.05
40199;BMP280;25906;43.536;26.068;2023-03-13T04:42:19;99499.88;;;1.06
40199;BMP280;25906;43.536;26.068;2023-03-13T04:45:05;99504.88;;;0.99
40199;BMP280;25906;43.536;26.068;2023-03-13T04:47:50;99504.31;;;1.05
40199;BMP280;25906;43.536;26.068;2023-03-13T04:50:36;99507.81;;;1.09
40199;BMP280;25906;43.536;26.068;2023-03-13T04:53:21;99506.59;;;1.07
40199;BMP280;25906;43.536;26.068;2023-03-13T04:56:06;99510.84;;;1.11
40199;BMP280;25906;43.536;26.068;2023-03-13T04:58:52;99508.81;;;1.21
40199;BMP280;25906;43.536;26.068;2023-03-13T05:01:38;99515.66;;;1.25
40199;BMP280;25906;43.536;26.068;2023-03-13T05:04:23;99525.69;;;1.39
40199;BMP280;25906;43.536;26.068;2023-03-13T05:07:08;99519.13;;;1.45
40199;BMP280;25906;43.536;26.068;2023-03-13T05:09:54;99527.72;;;1.45
40199;BMP280;25906;43.536;26.068;2023-03-13T05:12:39;99526.63;;;1.46
40199;BMP280;25906;43.536;26.068;2023-03-13T05:15:25;99515.97;;;1.51
40199;BMP280;25906;43.536;26.068;2023-03-13T05:18:10;99518.38;;;1.44
40199;BMP280;25906;43.536;26.068;2023-03-13T05:20:56;99520.59;;;1.58
40199;BMP280;25906;43.536;26.068;2023-03-13T05:23:42;99530.13;;;1.66
40199;BMP280;25906;43.536;26.068;2023-03-13T05:26:27;99529.97;;;1.59
40199;BMP280;25906;43.536;26.068;2023-03-13T05:29:12;99521.41;;;1.74
40199;BMP280;25906;43.536;26.068;2023-03-13T05:31:58;99532.22;;;1.76
40199;BMP280;25906;43.536;26.068;2023-03-13T05:34:43;99531.50;;;1.91
40199;BMP280;25906;43.536;26.068;2023-03-13T05:37:29;99543.34;;;2.05
40199;BMP280;25906;43.536;26.068;2023-03-13T05:40:14;99541.50;;;2.21
40199;BMP280;25906;43.536;26.068;2023-03-13T05:43:00;99544.53;;;2.23
40199;BMP280;25906;43.536;26.068;2023-03-13T05:45:45;99549.19;;;2.14
40199;BMP280;25906;43.536;26.068;2023-03-13T05:48:31;99545.84;;;2.32
40199;BMP280;25906;43.536;26.068;2023-03-13T05:51:16;99546.25;;;2.50
40199;BMP280;25906;43.536;26.068;2023-03-13T05:54:01;99544.91;;;2.41
40199;BMP280;25906;43.536;26.068;2023-03-13T05:56:47;99552.06;;;2.59
40199;BMP280;25906;43.536;26.068;2023-03-13T05:59:34;99558.75;;;2.76
40199;BMP280;25906;43.536;26.068;2023-03-13T06:02:19;99565.22;;;2.82
40199;BMP280;25906;43.536;26.068;2023-03-13T06:05:05;99564.03;;;2.99
40199;BMP280;25906;43.536;26.068;2023-03-13T06:07:50;99562.81;;;3.12
40199;BMP280;25906;43.536;26.068;2023-03-13T06:10:36;99565.41;;;3.31
40199;BMP280;25906;43.536;26.068;2023-03-13T06:13:21;99584.22;;;3.37
40199;BMP280;25906;43.536;26.068;2023-03-13T06:16:07;99572.06;;;3.48
40199;BMP280;25906;43.536;26.068;2023-03-13T06:18:52;99570.75;;;3.57
40199;BMP280;25906;43.536;26.068;2023-03-13T06:21:38;99569.84;;;3.69
40199;BMP280;25906;43.536;26.068;2023-03-13T06:24:24;99580.78;;;3.75
40199;BMP280;25906;43.536;26.068;2023-03-13T06:27:10;99579.56;;;3.91
40199;BMP280;25906;43.536;26.068;2023-03-13T06:29:55;99579.22;;;3.93
40199;BMP280;25906;43.536;26.068;2023-03-13T06:32:41;99574.81;;;3.78
40199;BMP280;25906;43.536;26.068;2023-03-13T06:35:26;99571.41;;;3.96
40199;BMP280;25906;43.536;26.068;2023-03-13T06:38:11;99563.88;;;3.95
40199;BMP280;25906;43.536;26.068;2023-03-13T06:40:57;99562.91;;;4.03
40199;BMP280;25906;43.536;26.068;2023-03-13T06:43:43;99567.94;;;4.41
40199;BMP280;25906;43.536;26.068;2023-03-13T06:46:28;99565.59;;;4.33
40199;BMP280;25906;43.536;26.068;2023-03-13T06:49:14;99564.31;;;4.50
40199;BMP280;25906;43.536;26.068;2023-03-13T06:51:59;99562.28;;;4.66
40199;BMP280;25906;43.536;26.068;2023-03-13T06:54:44;99556.72;;;4.71
40199;BMP280;25906;43.536;26.068;2023-03-13T06:57:30;99551.44;;;4.67
40199;BMP280;25906;43.536;26.068;2023-03-13T07:00:15;99547.38;;;4.73
40199;BMP280;25906;43.536;26.068;2023-03-13T07:03:01;99550.03;;;5.07
40199;BMP280;25906;43.536;26.068;2023-03-13T07:05:46;99558.84;;;4.92
40199;BMP280;25906;43.536;26.068;2023-03-13T07:08:32;99560.22;;;5.15
40199;BMP280;25906;43.536;26.068;2023-03-13T07:11:18;99547.00;;;5.42
40199;BMP280;25906;43.536;26.068;2023-03-13T07:14:03;99544.03;;;5.47
40199;BMP280;25906;43.536;26.068;2023-03-13T07:16:49;99544.38;;;5.45
40199;BMP280;25906;43.536;26.068;2023-03-13T07:19:34;99553.81;;;5.50
40199;BMP280;25906;43.536;26.068;2023-03-13T07:22:20;99546.88;;;5.72
40199;BMP280;25906;43.536;26.068;2023-03-13T07:25:06;99554.19;;;5.96
40199;BMP280;25906;43.536;26.068;2023-03-13T07:27:51;99569.72;;;6.22
40199;BMP280;25906;43.536;26.068;2023-03-13T07:30:37;99556.22;;;6.20
40199;BMP280;25906;43.536;26.068;2023-03-13T07:33:22;99548.81;;;6.47
40199;BMP280;25906;43.536;26.068;2023-03-13T07:36:08;99550.06;;;6.67
40199;BMP280;25906;43.536;26.068;2023-03-13T07:38:54;99549.66;;;6.65
40199;BMP280;25906;43.536;26.068;2023-03-13T07:41:39;99546.31;;;6.86
40199;BMP280;25906;43.536;26.068;2023-03-13T07:44:26;99549.03;;;7.04
40199;BMP280;25906;43.536;26.068;2023-03-13T07:47:11;99544.91;;;7.20
40199;BMP280;25906;43.536;26.068;2023-03-13T07:49:56;99552.81;;;7.45
40199;BMP280;25906;43.536;26.068;2023-03-13T07:52:42;99549.06;;;7.60
40199;BMP280;25906;43.536;26.068;2023-03-13T07:55:27;99547.16;;;7.78
40199;BMP280;25906;43.536;26.068;2023-03-13T07:58:13;99544.53;;;7.96
40199;BMP280;25906;43.536;26.068;2023-03-13T08:00:58;99530.16;;;8.15
40199;BMP280;25906;43.536;26.068;2023-03-13T08:03:44;99535.41;;;8.25
40199;BMP280;25906;43.536;26.068;2023-03-13T08:06:31;99534.56;;;8.46
40199;BMP280;25906;43.536;26.068;2023-03-13T08:09:17;99531.16;;;8.53
40199;BMP280;25906;43.536;26.068;2023-03-13T08:12:02;99535.16;;;8.79
40199;BMP280;25906;43.536;26.068;2023-03-13T08:14:48;99525.31;;;8.83
40199;BMP280;25906;43.536;26.068;2023-03-13T08:17:33;99531.72;;;8.89
40199;BMP280;25906;43.536;26.068;2023-03-13T08:20:19;99537.53;;;9.17
40199;BMP280;25906;43.536;26.068;2023-03-13T08:23:04;99537.94;;;9.16
40199;BMP280;25906;43.536;26.068;2023-03-13T08:25:49;99535.06;;;9.44
40199;BMP280;25906;43.536;26.068;2023-03-13T08:28:36;99536.59;;;9.42
40199;BMP280;25906;43.536;26.068;2023-03-13T08:31:27;99540.59;;;9.60
40199;BMP280;25906;43.536;26.068;2023-03-13T08:34:13;99541.34;;;9.57
40199;BMP280;25906;43.536;26.068;2023-03-13T08:36:59;99541.97;;;9.28
40199;BMP280;25906;43.536;26.068;2023-03-13T08:39:44;99530.16;;;9.84
40199;BMP280;25906;43.536;26.068;2023-03-13T08:42:30;99528.97;;;9.51
40199;BMP280;25906;43.536;26.068;2023-03-13T08:45:15;99525.56;;;9.54
40199;BMP280;25906;43.536;26.068;2023-03-13T08:48:00;99523.22;;;9.97
40199;BMP280;25906;43.536;26.068;2023-03-13T08:50:46;99522.78;;;10.02
40199;BMP280;25906;43.536;26.068;2023-03-13T08:53:32;99520.53;;;10.31
40199;BMP280;25906;43.536;26.068;2023-03-13T08:56:20;99522.47;;;10.84
40199;BMP280;25906;43.536;26.068;2023-03-13T08:59:06;99516.47;;;10.80
40199;BMP280;25906;43.536;26.068;2023-03-13T09:01:51;99507.84;;;10.76
40199;BMP280;25906;43.536;26.068;2023-03-13T09:04:37;99509.25;;;11.50
40199;BMP280;25906;43.536;26.068;2023-03-13T09:07:22;99518.25;;;11.33
40199;BMP280;25906;43.536;26.068;2023-03-13T09:10:08;99521.06;;;11.45
40199;BMP280;25906;43.536;26.068;2023-03-13T09:12:54;99511.19;;;11.26
40199;BMP280;25906;43.536;26.068;2023-03-13T09:15:39;99506.72;;;11.00
40199;BMP280;25906;43.536;26.068;2023-03-13T09:18:25;99504.97;;;11.13
40199;BMP280;25906;43.536;26.068;2023-03-13T09:21:13;99504.25;;;11.32
40199;BMP280;25906;43.536;26.068;2023-03-13T09:23:59;99512.78;;;11.43
40199;BMP280;25906;43.536;26.068;2023-03-13T09:26:45;99500.97;;;11.25
40199;BMP280;25906;43.536;26.068;2023-03-13T09:29:30;99500.00;;;11.38
40199;BMP280;25906;43.536;26.068;2023-03-13T09:32:17;99500.34;;;10.71
40199;BMP280;25906;43.536;26.068;2023-03-13T09:35:04;99500.91;;;10.82
40199;BMP280;25906;43.536;26.068;2023-03-13T09:37:50;99479.75;;;11.05
40199;BMP280;25906;43.536;26.068;2023-03-13T09:40:44;99489.38;;;11.19
40199;BMP280;25906;43.536;26.068;2023-03-13T09:49:40;99495.28;;;12.25
40199;BMP280;25906;43.536;26.068;2023-03-13T09:52:33;99498.44;;;12.00
40199;BMP280;25906;43.536;26.068;2023-03-13T09:55:30;99493.13;;;12.36
40199;BMP280;25906;43.536;26.068;2023-03-13T09:58:18;99497.69;;;12.35
40199;BMP280;25906;43.536;26.068;2023-03-13T10:01:05;99492.84;;;11.78
40199;BMP280;25906;43.536;26.068;2023-03-13T10:06:51;99492.06;;;12.66
40199;BMP280;25906;43.536;26.068;2023-03-13T10:09:37;99481.75;;;12.35
40199;BMP280;25906;43.536;26.068;2023-03-13T10:12:31;99472.72;;;11.97
40199;BMP280;25906;43.536;26.068;2023-03-13T10:15:49;99487.00;;;12.03
40199;BMP280;25906;43.536;26.068;2023-03-13T10:18:37;99484.88;;;12.14
40199;BMP280;25906;43.536;26.068;2023-03-13T10:21:26;99494.63;;;12.53
40199;BMP280;25906;43.536;26.068;2023-03-13T10:27:13;99482.50;;;13.00
40199;BMP280;25906;43.536;26.068;2023-03-13T10:29:59;99479.25;;;13.38
40199;BMP280;25906;43.536;26.068;2023-03-13T10:32:44;99469.69;;;13.12
40199;BMP280;25906;43.536;26.068;2023-03-13T10:35:35;99470.41;;;13.28
40199;BMP280;25906;43.536;26.068;2023-03-13T10:38:21;99456.22;;;13.31
40199;BMP280;25906;43.536;26.068;2023-03-13T10:44:21;99455.16;;;13.58
40199;BMP280;25906;43.536;26.068;2023-03-13T10:47:11;99453.47;;;13.22
40199;BMP280;25906;43.536;26.068;2023-03-13T10:49:57;99452.97;;;12.82
40199;BMP280;25906;43.536;26.068;2023-03-13T10:52:45;99445.09;;;12.46
40199;BMP280;25906;43.536;26.068;2023-03-13T10:55:30;99445.25;;;12.88
40199;BMP280;25906;43.536;26.068;2023-03-13T10:58:33;99430.31;;;13.23
40199;BMP280;25906;43.536;26.068;2023-03-13T11:01:28;99424.34;;;13.31
40199;BMP280;25906;43.536;26.068;2023-03-13T11:07:15;99419.41;;;13.17
40199;BMP280;25906;43.536;26.068;2023-03-13T11:10:05;99413.81;;;12.99
40199;BMP280;25906;43.536;26.068;2023-03-13T11:12:59;99411.28;;;13.37
40199;BMP280;25906;43.536;26.068;2023-03-13T11:15:53;99406.66;;;13.53
40199;BMP280;25906;43.536;26.068;2023-03-13T11:24:31;99393.78;;;13.65
40199;BMP280;25906;43.536;26.068;2023-03-13T11:31:12;99388.41;;;13.39
40199;BMP280;25906;43.536;26.068;2023-03-13T11:34:05;99383.72;;;13.31
40199;BMP280;25906;43.536;26.068;2023-03-13T11:37:15;99381.97;;;13.78
40199;BMP280;25906;43.536;26.068;2023-03-13T11:40:31;99380.81;;;13.92
40199;BMP280;25906;43.536;26.068;2023-03-13T11:43:38;99373.09;;;13.43
40199;BMP280;25906;43.536;26.068;2023-03-13T11:46:36;99372.09;;;13.25
40199;BMP280;25906;43.536;26.068;2023-03-13T12:05:06;99355.03;;;13.76
40199;BMP280;25906;43.536;26.068;2023-03-13T12:07:56;99345.44;;;14.04
40199;BMP280;25906;43.536;26.068;2023-03-13T12:10:47;99352.06;;;13.74
40199;BMP280;25906;43.536;26.068;2023-03-13T12:14:00;99342.47;;;13.39
40199;BMP280;25906;43.536;26.068;2023-03-13T12:16:59;99341.69;;;14.14
40199;BMP280;25906;43.536;26.068;2023-03-13T12:19:55;99342.06;;;13.91
40199;BMP280;25906;43.536;26.068;2023-03-13T12:23:17;99328.75;;;13.66
40199;BMP280;25906;43.536;26.068;2023-03-13T12:26:05;99338.47;;;14.19
40199;BMP280;25906;43.536;26.068;2023-03-13T12:29:11;99330.56;;;14.28
40199;BMP280;25906;43.536;26.068;2023-03-13T12:32:08;99329.25;;;14.11
40199;BMP280;25906;43.536;26.068;2023-03-13T12:38:16;99330.53;;;13.94
40199;BMP280;25906;43.536;26.068;2023-03-13T12:44:19;99327.88;;;13.94
40199;BMP280;25906;43.536;26.068;2023-03-13T12:50:35;99330.63;;;13.02
40199;BMP280;25906;43.536;26.068;2023-03-13T12:54:09;99328.63;;;13.31
40199;BMP280;25906;43.536;26.068;2023-03-13T13:00:22;99319.50;;;13.58
40199;BMP280;25906;43.536;26.068;2023-03-13T13:06:01;99323.88;;;13.77
40199;BMP280;25906;43.536;26.068;2023-03-13T13:17:29;99312.66;;;13.82
40199;BMP280;25906;43.536;26.068;2023-03-13T13:23:34;99310.69;;;13.86
40199;BMP280;25906;43.536;26.068;2023-03-13T13:32:03;99301.44;;;13.52
40199;BMP280;25906;43.536;26.068;2023-03-13T13:34:58;99301.63;;;13.58
40199;BMP280;25906;43.536;26.068;2023-03-13T13:37:45;99295.69;;;13.67
40199;BMP280;25906;43.536;26.068;2023-03-13T13:40:31;99287.94;;;13.34
40199;BMP280;25906;43.536;26.068;2023-03-13T13:43:21;99291.63;;;13.37
40199;BMP280;25906;43.536;26.068;2023-03-13T13:49:17;99289.28;;;13.77
40199;BMP280;25906;43.536;26.068;2023-03-13T13:54:54;99288.38;;;12.91
40199;BMP280;25906;43.536;26.068;2023-03-13T13:57:40;99276.47;;;12.71
40199;BMP280;25906;43.536;26.068;2023-03-13T14:00:34;99280.34;;;13.08
40199;BMP280;25906;43.536;26.068;2023-03-13T14:03:31;99282.06;;;13.14
40199;BMP280;25906;43.536;26.068;2023-03-13T14:06:20;99278.09;;;12.93
40199;BMP280;25906;43.536;26.068;2023-03-13T14:09:19;99283.59;;;12.86
40199;BMP280;25906;43.536;26.068;2023-03-13T14:21:01;99278.56;;;12.76
40199;BMP280;25906;43.536;26.068;2023-03-13T14:23:46;99278.47;;;12.79
40199;BMP280;25906;43.536;26.068;2023-03-13T14:26:41;99272.22;;;12.73
40199;BMP280;25906;43.536;26.068;2023-03-13T14:29:27;99274.06;;;12.89
40199;BMP280;25906;43.536;26.068;2023-03-13T14:32:16;99273.16;;;12.67
40199;BMP280;25906;43.536;26.068;2023-03-13T14:35:04;99276.72;;;12.60
40199;BMP280;25906;43.536;26.068;2023-03-13T14:37:51;99273.56;;;12.65
40199;BMP280;25906;43.536;26.068;2023-03-13T14:40:38;99270.56;;;13.17
40199;BMP280;25906;43.536;26.068;2023-03-13T14:43:34;99277.38;;;13.31
40199;BMP280;25906;43.536;26.068;2023-03-13T14:46:27;99273.22;;;13.17
40199;BMP280;25906;43.536;26.068;2023-03-13T14:49:20;99269.91;;;13.00
40199;BMP280;25906;43.536;26.068;2023-03-13T14:52:24;99264.59;;;13.00
40199;BMP280;25906;43.536;26.068;2023-03-13T14:58:29;99265.78;;;13.12
40199;BMP280;25906;43.536;26.068;2023-03-13T15:01:26;99266.63;;;12.96
40199;BMP280;25906;43.536;26.068;2023-03-13T15:04:14;99259.06;;;12.82
40199;BMP280;25906;43.536;26.068;2023-03-13T15:07:06;99266.25;;;12.40
40199;BMP280;25906;43.536;26.068;2023-03-13T15:09:52;99262.94;;;12.36
40199;BMP280;25906;43.536;26.068;2023-03-13T15:12:42;99260.75;;;12.19
40199;BMP280;25906;43.536;26.068;2023-03-13T15:15:28;99253.19;;;12.17
40199;BMP280;25906;43.536;26.068;2023-03-13T15:18:22;99258.84;;;12.19
40199;BMP280;25906;43.536;26.068;2023-03-13T15:24:12;99256.22;;;12.32
40199;BMP280;25906;43.536;26.068;2023-03-13T15:26:59;99263.31;;;12.22
40199;BMP280;25906;43.536;26.068;2023-03-13T15:29:44;99265.06;;;11.96
40199;BMP280;25906;43.536;26.068;2023-03-13T15:32:33;99259.09;;;12.09
40199;BMP280;25906;43.536;26.068;2023-03-13T15:38:16;99273.19;;;12.05
40199;BMP280;25906;43.536;26.068;2023-03-13T15:41:02;99278.66;;;11.98
40199;BMP280;25906;43.536;26.068;2023-03-13T15:43:48;99275.34;;;11.94
40199;BMP280;25906;43.536;26.068;2023-03-13T15:46:36;99276.94;;;11.92
40199;BMP280;25906;43.536;26.068;2023-03-13T15:49:22;99273.44;;;11.95
40199;BMP280;25906;43.536;26.068;2023-03-13T15:52:14;99280.22;;;11.96
40199;BMP280;25906;43.536;26.068;2023-03-13T15:55:03;99271.81;;;11.85
40199;BMP280;25906;43.536;26.068;2023-03-13T15:57:51;99269.50;;;11.87
40199;BMP280;25906;43.536;26.068;2023-03-13T16:00:36;99275.38;;;11.78
40199;BMP280;25906;43.536;26.068;2023-03-13T16:03:27;99275.59;;;11.68
40199;BMP280;25906;43.536;26.068;2023-03-13T16:06:17;99276.72;;;11.50
40199;BMP280;25906;43.536;26.068;2023-03-13T16:09:04;99278.09;;;11.23
40199;BMP280;25906;43.536;26.068;2023-03-13T16:11:50;99278.56;;;11.18
40199;BMP280;25906;43.536;26.068;2023-03-13T16:14:36;99279.47;;;11.11
40199;BMP280;25906;43.536;26.068;2023-03-13T16:17:22;99273.97;;;11.02
40199;BMP280;25906;43.536;26.068;2023-03-13T16:20:17;99278.72;;;10.91
40199;BMP280;25906;43.536;26.068;2023-03-13T16:23:04;99270.09;;;10.87
40199;BMP280;25906;43.536;26.068;2023-03-13T16:25:50;99273.19;;;10.62
40199;BMP280;25906;43.536;26.068;2023-03-13T16:28:35;99274.31;;;10.65
40199;BMP280;25906;43.536;26.068;2023-03-13T16:31:26;99267.34;;;10.51
40199;BMP280;25906;43.536;26.068;2023-03-13T16:34:12;99270.19;;;10.40
40199;BMP280;25906;43.536;26.068;2023-03-13T16:36:57;99261.66;;;10.29
40199;BMP280;25906;43.536;26.068;2023-03-13T16:39:43;99260.06;;;10.12
40199;BMP280;25906;43.536;26.068;2023-03-13T16:42:29;99265.41;;;10.08
40199;BMP280;25906;43.536;26.068;2023-03-13T16:45:15;99266.13;;;9.86
40199;BMP280;25906;43.536;26.068;2023-03-13T16:48:00;99270.06;;;9.74
40199;BMP280;25906;43.536;26.068;2023-03-13T16:50:46;99278.09;;;9.67
40199;BMP280;25906;43.536;26.068;2023-03-13T16:53:31;99280.84;;;9.60
40199;BMP280;25906;43.536;26.068;2023-03-13T16:56:32;99282.84;;;9.49
40199;BMP280;25906;43.536;26.068;2023-03-13T16:59:18;99283.75;;;9.39
40199;BMP280;25906;43.536;26.068;2023-03-13T17:02:04;99289.56;;;9.27
40199;BMP280;25906;43.536;26.068;2023-03-13T17:04:49;99288.88;;;9.19
40199;BMP280;25906;43.536;26.068;2023-03-13T17:07:34;99297.28;;;9.14
40199;BMP280;25906;43.536;26.068;2023-03-13T17:10:29;99297.00;;;9.05
40199;BMP280;25906;43.536;26.068;2023-03-13T17:13:14;99297.56;;;8.86
40199;BMP280;25906;43.536;26.068;2023-03-13T17:16:00;99296.16;;;8.70
40199;BMP280;25906;43.536;26.068;2023-03-13T17:18:49;99292.34;;;8.79
40199;BMP280;25906;43.536;26.068;2023-03-13T17:21:35;99290.81;;;8.81
40199;BMP280;25906;43.536;26.068;2023-03-13T17:24:21;99293.09;;;8.79
40199;BMP280;25906;43.536;26.068;2023-03-13T17:27:14;99289.28;;;8.84
40199;BMP280;25906;43.536;26.068;2023-03-13T17:30:00;99284.47;;;8.75
40199;BMP280;25906;43.536;26.068;2023-03-13T17:32:46;99285.69;;;8.63
40199;BMP280;25906;43.536;26.068;2023-03-13T17:35:32;99292.09;;;8.66
40199;BMP280;25906;43.536;26.068;2023-03-13T17:38:17;99291.75;;;8.60
40199;BMP280;25906;43.536;26.068;2023-03-13T17:41:03;99293.25;;;8.61
40199;BMP280;25906;43.536;26.068;2023-03-13T17:43:48;99296.03;;;8.47
40199;BMP280;25906;43.536;26.068;2023-03-13T17:46:43;99287.38;;;8.43